Grandview on Hudson, New York
Current Conditions -  °F | °C
As of 6:56 PM on Friday 24 Oct 2014 (Local Time) from KHPN Reporting Station
Clear Clear  
Wind Chill: 11°   Ceiling: Unl
Heat Index: 11°   Visibility: 10mi
Dew Point:   Wind: 5mph
Humidity: 74%   Direction: 330°NNW
Pressure: 29.78"   Gusts: NA
Location:  41.0938°N, 73.9254°W
Report Text: KHPN 242256Z 33004KT 10SM CLR 11/07 A2978 RMK AO2 SLP085 T01110067
Loading
Personal Weather Stations






























Interactive Weather Map
Tropical Storm Tracking
New forecast layout! Learn more

10-Day Weather Forecast

Advertisements
Track Severe Weather on mobile